createdAt,value
2022-12-27T20:55:16.677Z,1017.37
2022-12-27T20:56:16.366Z,1017.41
2022-12-27T20:57:16.248Z,1017.39
2022-12-27T20:58:16.230Z,1017.42
2022-12-27T20:59:16.109Z,1017.39
2022-12-27T21:00:16.112Z,1017.34
2022-12-27T21:01:16.179Z,1017.35
2022-12-27T21:02:16.154Z,1017.38
2022-12-27T21:03:16.107Z,1017.41
2022-12-27T21:04:15.874Z,1017.32
2022-12-27T21:05:15.876Z,1017.40
2022-12-27T21:06:15.762Z,1017.35
2022-12-27T21:07:15.757Z,1017.31
2022-12-27T21:08:15.756Z,1017.33
2022-12-27T21:09:15.646Z,1017.34
2022-12-27T21:10:15.646Z,1017.31
2022-12-27T21:11:15.544Z,1017.26
2022-12-27T21:12:15.522Z,1017.26
2022-12-27T21:13:15.530Z,1017.26
2022-12-27T21:14:15.410Z,1017.19
2022-12-27T21:15:15.409Z,1017.21
2022-12-27T21:16:15.332Z,1017.17
2022-12-27T21:17:15.286Z,1017.16
2022-12-27T21:18:15.287Z,1017.20
2022-12-27T21:19:15.180Z,1017.14
2022-12-27T21:20:15.168Z,1017.14
2022-12-27T21:21:15.050Z,1017.14
2022-12-27T21:22:15.054Z,1017.15
2022-12-27T21:23:15.051Z,1017.11
2022-12-27T21:24:14.937Z,1017.10
2022-12-27T21:25:14.935Z,1017.07
2022-12-27T21:26:14.819Z,1017.13
2022-12-27T21:27:14.928Z,1017.12
2022-12-27T21:28:14.905Z,1017.05
2022-12-27T21:29:14.737Z,1017.12
2022-12-27T21:30:14.697Z,1017.16
2022-12-27T21:31:14.648Z,1017.13
2022-12-27T21:32:14.678Z,1017.22
2022-12-27T21:33:14.584Z,1017.12
2022-12-27T21:34:14.682Z,1017.20
2022-12-27T21:35:14.462Z,1017.13
2022-12-27T21:36:14.435Z,1017.14
2022-12-27T21:37:14.466Z,1017.14
2022-12-27T21:38:14.439Z,1017.09
2022-12-27T21:39:14.330Z,1017.14
2022-12-27T21:40:14.323Z,1017.05
2022-12-27T21:41:14.200Z,1017.08
2022-12-27T21:42:14.201Z,1017.12
2022-12-27T21:43:14.227Z,1017.09
2022-12-27T21:44:14.091Z,1017.08
2022-12-27T21:45:14.085Z,1017.01
2022-12-27T21:46:14.033Z,1016.98
2022-12-27T21:47:13.984Z,1016.94
2022-12-27T21:48:13.965Z,1016.97
2022-12-27T21:49:13.848Z,1016.96
2022-12-27T21:50:13.848Z,1016.90
2022-12-27T21:51:13.739Z,1016.95
2022-12-27T21:52:13.730Z,1016.96
2022-12-27T21:53:13.733Z,1016.96
2022-12-27T21:54:13.682Z,1016.95
2022-12-27T21:55:13.619Z,1016.89
2022-12-27T21:56:13.506Z,1016.85
2022-12-27T21:57:13.736Z,1016.87
2022-12-27T21:58:13.631Z,1016.88
2022-12-27T21:59:13.574Z,1016.84
2022-12-27T22:00:13.503Z,1016.86
2022-12-27T22:01:13.492Z,1016.78
2022-12-27T22:02:13.559Z,1016.79
2022-12-27T22:03:13.448Z,1016.77
2022-12-27T22:04:13.170Z,1016.76
2022-12-27T22:05:13.315Z,1016.75
2022-12-27T22:06:13.268Z,1016.75
2022-12-27T22:07:13.327Z,1016.71
2022-12-27T22:08:13.153Z,1016.65
2022-12-27T22:09:13.155Z,1016.65
2022-12-27T22:10:13.029Z,1016.66
2022-12-27T22:11:13.027Z,1016.65
2022-12-27T22:12:12.916Z,1016.65
2022-12-27T22:13:12.800Z,1016.59
2022-12-27T22:14:12.685Z,1016.70
2022-12-27T22:15:12.583Z,1016.60
2022-12-27T22:16:12.610Z,1016.62
2022-12-27T22:17:12.555Z,1016.59
2022-12-27T22:18:12.438Z,1016.55
2022-12-27T22:19:12.456Z,1016.53
2022-12-27T22:20:12.324Z,1016.51
2022-12-27T22:21:12.321Z,1016.54
2022-12-27T22:22:12.321Z,1016.55
2022-12-27T22:23:12.209Z,1016.49
2022-12-27T22:24:12.207Z,1016.45
2022-12-27T22:25:12.090Z,1016.41
2022-12-27T22:26:12.087Z,1016.39
2022-12-27T22:27:12.096Z,1016.40
2022-12-27T22:28:11.979Z,1016.38
2022-12-27T22:29:12.005Z,1016.32
2022-12-27T22:30:11.851Z,1016.30
2022-12-27T22:31:11.950Z,1016.28
2022-12-27T22:32:11.853Z,1016.26
2022-12-27T22:33:11.747Z,1016.30
2022-12-27T22:34:11.733Z,1016.37
2022-12-27T22:35:11.624Z,1016.28
2022-12-27T22:36:11.620Z,1016.23
2022-12-27T22:37:11.616Z,1016.19
2022-12-27T22:38:11.518Z,1016.19
2022-12-27T22:39:11.509Z,1016.12
2022-12-27T22:40:37.896Z,1016.18
2022-12-27T22:41:11.383Z,1016.15
2022-12-27T22:42:11.387Z,1016.15
2022-12-27T22:44:11.296Z,1016.06
2022-12-27T22:45:11.166Z,1016.06
2022-12-27T22:46:11.192Z,1016.01
2022-12-27T22:47:27.884Z,1015.96
2022-12-27T22:49:11.047Z,1015.90
2022-12-27T22:50:10.950Z,1015.85
2022-12-27T22:51:10.907Z,1015.82
2022-12-27T22:52:10.917Z,1015.75
2022-12-27T22:53:10.790Z,1015.77
2022-12-27T22:54:10.794Z,1015.76
2022-12-27T22:55:10.803Z,1015.70
2022-12-27T22:56:10.675Z,1015.67
2022-12-27T22:57:10.613Z,1015.63
2022-12-27T22:58:10.494Z,1015.60
2022-12-27T22:59:10.499Z,1015.64
2022-12-27T23:00:10.475Z,1015.66
2022-12-27T23:01:10.417Z,1015.65
2022-12-27T23:02:10.539Z,1015.63
2022-12-27T23:03:10.279Z,1015.63
2022-12-27T23:04:10.283Z,1015.64
2022-12-27T23:05:10.261Z,1015.59
2022-12-27T23:06:10.136Z,1015.52
2022-12-27T23:07:10.136Z,1015.48
2022-12-27T23:08:10.034Z,1015.46
2022-12-27T23:09:10.080Z,1015.41
2022-12-27T23:10:10.045Z,1015.47
2022-12-27T23:11:09.897Z,1015.42
2022-12-27T23:12:09.926Z,1015.41
2022-12-27T23:13:09.781Z,1015.39
2022-12-27T23:14:09.788Z,1015.31
2022-12-27T23:15:09.781Z,1015.31
2022-12-27T23:16:09.731Z,1015.31
2022-12-27T23:17:09.688Z,1015.26
2022-12-27T23:18:09.537Z,1015.21
2022-12-27T23:20:09.564Z,1015.14
2022-12-27T23:21:21.800Z,1015.13
2022-12-27T23:22:09.433Z,1015.09
2022-12-27T23:23:09.304Z,1015.05
2022-12-27T23:24:09.305Z,1015.02
2022-12-27T23:25:09.317Z,1015.06
2022-12-27T23:26:09.182Z,1015.05
2022-12-27T23:27:09.188Z,1014.95
2022-12-27T23:28:09.065Z,1014.95
2022-12-27T23:29:09.066Z,1014.94
2022-12-27T23:30:09.067Z,1014.94
2022-12-27T23:31:08.989Z,1014.93
2022-12-27T23:33:08.838Z,1014.91
2022-12-27T23:34:08.840Z,1014.94
2022-12-27T23:35:08.836Z,1014.88
2022-12-27T23:36:08.748Z,1014.88
2022-12-27T23:37:08.723Z,1014.84
2022-12-27T23:38:08.600Z,1014.77
2022-12-27T23:39:08.592Z,1014.81
2022-12-27T23:40:08.599Z,1014.82
2022-12-27T23:41:08.475Z,1014.73
2022-12-27T23:42:08.491Z,1014.69
2022-12-27T23:43:41.937Z,1014.67
2022-12-27T23:44:08.369Z,1014.67
2022-12-27T23:45:08.365Z,1014.58
2022-12-27T23:46:08.300Z,1014.55
2022-12-27T23:47:08.316Z,1014.57
2022-12-27T23:48:08.125Z,1014.51
2022-12-27T23:49:08.124Z,1014.43
2022-12-27T23:50:08.129Z,1014.42
2022-12-27T23:51:08.007Z,1014.44
2022-12-27T23:52:08.030Z,1014.43
2022-12-27T23:53:08.003Z,1014.32
2022-12-27T23:54:07.933Z,1014.35
2022-12-27T23:55:07.901Z,1014.30
2022-12-27T23:56:07.810Z,1014.35
2022-12-27T23:57:22.302Z,1014.28
2022-12-27T23:58:07.771Z,1014.25
2022-12-27T23:59:07.657Z,1014.29
